sensor_id;sensor_type;location;lat;lon;timestamp;P1;durP1;ratioP1;P2;durP2;ratioP2
27412;SDS011;14871;52.702;5.230;2022-10-16T00:01:08;4.20;;;1.35;;
27412;SDS011;14871;52.702;5.230;2022-10-16T00:03:36;7.93;;;1.60;;
27412;SDS011;14871;52.702;5.230;2022-10-16T00:06:03;6.93;;;1.38;;
27412;SDS011;14871;52.702;5.230;2022-10-16T00:08:29;4.28;;;1.40;;
27412;SDS011;14871;52.702;5.230;2022-10-16T00:10:59;4.80;;;1.10;;
27412;SDS011;14871;52.702;5.230;2022-10-16T00:13:29;5.68;;;1.63;;
27412;SDS011;14871;52.702;5.230;2022-10-16T00:15:56;6.93;;;1.35;;
27412;SDS011;14871;52.702;5.230;2022-10-16T00:18:23;6.18;;;1.40;;
27412;SDS011;14871;52.702;5.230;2022-10-16T00:20:49;4.85;;;1.05;;
27412;SDS011;14871;52.702;5.230;2022-10-16T00:23:14;7.05;;;1.55;;
27412;SDS011;14871;52.702;5.230;2022-10-16T00:25:40;4.50;;;1.38;;
27412;SDS011;14871;52.702;5.230;2022-10-16T00:28:06;7.32;;;1.60;;
27412;SDS011;14871;52.702;5.230;2022-10-16T00:30:31;8.10;;;1.60;;
27412;SDS011;14871;52.702;5.230;2022-10-16T00:32:57;2.75;;;1.30;;
27412;SDS011;14871;52.702;5.230;2022-10-16T00:35:23;4.60;;;2.17;;
27412;SDS011;14871;52.702;5.230;2022-10-16T00:37:48;6.05;;;1.08;;
27412;SDS011;14871;52.702;5.230;2022-10-16T00:40:14;4.97;;;1.60;;
27412;SDS011;14871;52.702;5.230;2022-10-16T00:42:40;7.10;;;1.60;;
27412;SDS011;14871;52.702;5.230;2022-10-16T00:45:06;4.45;;;1.10;;
27412;SDS011;14871;52.702;5.230;2022-10-16T00:47:34;7.40;;;1.33;;
27412;SDS011;14871;52.702;5.230;2022-10-16T00:50:29;7.95;;;1.60;;
27412;SDS011;14871;52.702;5.230;2022-10-16T00:52:57;5.38;;;1.50;;
27412;SDS011;14871;52.702;5.230;2022-10-16T00:55:25;5.35;;;2.00;;
27412;SDS011;14871;52.702;5.230;2022-10-16T00:57:52;3.42;;;1.65;;
27412;SDS011;14871;52.702;5.230;2022-10-16T01:00:21;8.05;;;1.73;;
27412;SDS011;14871;52.702;5.230;2022-10-16T01:02:55;5.75;;;1.95;;
27412;SDS011;14871;52.702;5.230;2022-10-16T01:05:24;7.30;;;2.35;;
27412;SDS011;14871;52.702;5.230;2022-10-16T01:13:41;4.90;;;1.92;;
27412;SDS011;14871;52.702;5.230;2022-10-16T01:16:16;8.63;;;2.60;;
27412;SDS011;14871;52.702;5.230;2022-10-16T01:18:46;8.30;;;2.33;;
27412;SDS011;14871;52.702;5.230;2022-10-16T01:21:22;6.20;;;1.67;;
27412;SDS011;14871;52.702;5.230;2022-10-16T01:24:15;7.00;;;2.13;;
27412;SDS011;14871;52.702;5.230;2022-10-16T01:32:27;8.00;;;2.10;;
27412;SDS011;14871;52.702;5.230;2022-10-16T01:37:47;5.43;;;1.88;;
27412;SDS011;14871;52.702;5.230;2022-10-16T01:40:14;4.85;;;1.80;;
27412;SDS011;14871;52.702;5.230;2022-10-16T01:42:44;5.07;;;1.90;;
27412;SDS011;14871;52.702;5.230;2022-10-16T01:45:15;2.88;;;1.63;;
27412;SDS011;14871;52.702;5.230;2022-10-16T01:47:44;3.05;;;1.70;;
27412;SDS011;14871;52.702;5.230;2022-10-16T01:50:11;4.40;;;2.00;;
27412;SDS011;14871;52.702;5.230;2022-10-16T01:52:40;5.43;;;2.15;;
27412;SDS011;14871;52.702;5.230;2022-10-16T01:55:10;7.35;;;2.00;;
27412;SDS011;14871;52.702;5.230;2022-10-16T01:57:39;4.32;;;1.90;;
27412;SDS011;14871;52.702;5.230;2022-10-16T02:00:10;4.43;;;2.20;;
27412;SDS011;14871;52.702;5.230;2022-10-16T02:02:38;9.13;;;2.78;;
27412;SDS011;14871;52.702;5.230;2022-10-16T02:05:11;7.53;;;2.58;;
27412;SDS011;14871;52.702;5.230;2022-10-16T02:07:55;7.90;;;2.58;;
27412;SDS011;14871;52.702;5.230;2022-10-16T02:10:21;4.97;;;2.17;;
27412;SDS011;14871;52.702;5.230;2022-10-16T02:12:50;4.53;;;2.20;;
27412;SDS011;14871;52.702;5.230;2022-10-16T02:15:23;3.92;;;2.00;;
27412;SDS011;14871;52.702;5.230;2022-10-16T02:17:49;7.15;;;1.90;;
27412;SDS011;14871;52.702;5.230;2022-10-16T02:20:14;3.83;;;1.85;;
27412;SDS011;14871;52.702;5.230;2022-10-16T02:22:45;6.32;;;1.85;;
27412;SDS011;14871;52.702;5.230;2022-10-16T02:25:35;6.43;;;1.70;;
27412;SDS011;14871;52.702;5.230;2022-10-16T02:28:17;3.20;;;1.55;;
27412;SDS011;14871;52.702;5.230;2022-10-16T02:30:50;5.57;;;1.33;;
27412;SDS011;14871;52.702;5.230;2022-10-16T02:33:21;3.70;;;1.48;;
27412;SDS011;14871;52.702;5.230;2022-10-16T02:35:48;5.95;;;1.42;;
27412;SDS011;14871;52.702;5.230;2022-10-16T02:38:15;3.90;;;1.35;;
27412;SDS011;14871;52.702;5.230;2022-10-16T02:40:42;2.17;;;1.40;;
27412;SDS011;14871;52.702;5.230;2022-10-16T02:43:08;2.80;;;1.75;;
27412;SDS011;14871;52.702;5.230;2022-10-16T02:45:34;3.40;;;1.42;;
27412;SDS011;14871;52.702;5.230;2022-10-16T02:48:00;2.70;;;1.42;;
27412;SDS011;14871;52.702;5.230;2022-10-16T02:50:26;3.90;;;1.55;;
27412;SDS011;14871;52.702;5.230;2022-10-16T02:52:51;6.03;;;1.38;;
27412;SDS011;14871;52.702;5.230;2022-10-16T02:55:17;4.20;;;1.45;;
27412;SDS011;14871;52.702;5.230;2022-10-16T02:57:43;4.15;;;1.63;;
27412;SDS011;14871;52.702;5.230;2022-10-16T03:00:09;2.47;;;1.10;;
27412;SDS011;14871;52.702;5.230;2022-10-16T03:02:38;3.50;;;1.42;;
27412;SDS011;14871;52.702;5.230;2022-10-16T03:05:04;5.72;;;1.30;;
27412;SDS011;14871;52.702;5.230;2022-10-16T03:07:30;6.47;;;1.75;;
27412;SDS011;14871;52.702;5.230;2022-10-16T03:09:55;4.22;;;1.60;;
27412;SDS011;14871;52.702;5.230;2022-10-16T03:12:21;4.60;;;1.55;;
27412;SDS011;14871;52.702;5.230;2022-10-16T03:14:47;3.90;;;1.30;;
27412;SDS011;14871;52.702;5.230;2022-10-16T03:17:12;5.20;;;1.60;;
27412;SDS011;14871;52.702;5.230;2022-10-16T03:19:39;4.13;;;1.67;;
27412;SDS011;14871;52.702;5.230;2022-10-16T03:22:04;7.38;;;1.75;;
27412;SDS011;14871;52.702;5.230;2022-10-16T03:24:30;5.85;;;1.98;;
27412;SDS011;14871;52.702;5.230;2022-10-16T03:26:56;5.93;;;1.90;;
27412;SDS011;14871;52.702;5.230;2022-10-16T03:29:21;5.47;;;1.77;;
27412;SDS011;14871;52.702;5.230;2022-10-16T03:31:47;6.43;;;1.98;;
27412;SDS011;14871;52.702;5.230;2022-10-16T03:34:14;4.13;;;2.00;;
27412;SDS011;14871;52.702;5.230;2022-10-16T03:36:40;2.42;;;1.27;;
27412;SDS011;14871;52.702;5.230;2022-10-16T03:39:05;3.85;;;1.75;;
27412;SDS011;14871;52.702;5.230;2022-10-16T03:41:31;3.50;;;1.92;;
27412;SDS011;14871;52.702;5.230;2022-10-16T03:43:56;3.63;;;1.52;;
27412;SDS011;14871;52.702;5.230;2022-10-16T03:46:22;4.55;;;1.80;;
27412;SDS011;14871;52.702;5.230;2022-10-16T03:48:48;5.78;;;1.92;;
27412;SDS011;14871;52.702;5.230;2022-10-16T03:51:13;4.00;;;2.10;;
27412;SDS011;14871;52.702;5.230;2022-10-16T03:53:39;6.00;;;2.20;;
27412;SDS011;14871;52.702;5.230;2022-10-16T03:56:04;5.45;;;2.20;;
27412;SDS011;14871;52.702;5.230;2022-10-16T03:58:30;4.15;;;2.35;;
27412;SDS011;14871;52.702;5.230;2022-10-16T04:00:56;4.35;;;2.83;;
27412;SDS011;14871;52.702;5.230;2022-10-16T04:03:21;5.63;;;2.42;;
27412;SDS011;14871;52.702;5.230;2022-10-16T04:05:47;4.57;;;2.60;;
27412;SDS011;14871;52.702;5.230;2022-10-16T04:08:13;4.82;;;2.30;;
27412;SDS011;14871;52.702;5.230;2022-10-16T04:10:39;3.58;;;2.45;;
27412;SDS011;14871;52.702;5.230;2022-10-16T04:13:06;6.82;;;2.50;;
27412;SDS011;14871;52.702;5.230;2022-10-16T04:15:33;5.68;;;2.38;;
27412;SDS011;14871;52.702;5.230;2022-10-16T04:17:58;4.45;;;2.20;;
27412;SDS011;14871;52.702;5.230;2022-10-16T04:20:24;5.53;;;2.30;;
27412;SDS011;14871;52.702;5.230;2022-10-16T04:22:50;5.05;;;2.35;;
27412;SDS011;14871;52.702;5.230;2022-10-16T04:25:15;6.93;;;2.88;;
27412;SDS011;14871;52.702;5.230;2022-10-16T04:27:41;4.85;;;3.00;;
27412;SDS011;14871;52.702;5.230;2022-10-16T04:30:07;4.32;;;2.70;;
27412;SDS011;14871;52.702;5.230;2022-10-16T04:32:32;7.82;;;2.60;;
27412;SDS011;14871;52.702;5.230;2022-10-16T04:34:58;5.18;;;2.75;;
27412;SDS011;14871;52.702;5.230;2022-10-16T04:37:24;6.35;;;3.28;;
27412;SDS011;14871;52.702;5.230;2022-10-16T04:39:50;5.57;;;3.17;;
27412;SDS011;14871;52.702;5.230;2022-10-16T04:42:16;6.05;;;3.10;;
27412;SDS011;14871;52.702;5.230;2022-10-16T04:44:42;6.57;;;3.00;;
27412;SDS011;14871;52.702;5.230;2022-10-16T04:47:07;5.75;;;3.33;;
27412;SDS011;14871;52.702;5.230;2022-10-16T04:49:33;6.22;;;3.03;;
27412;SDS011;14871;52.702;5.230;2022-10-16T04:51:58;7.10;;;3.05;;
27412;SDS011;14871;52.702;5.230;2022-10-16T04:54:24;7.30;;;2.95;;
27412;SDS011;14871;52.702;5.230;2022-10-16T04:56:50;9.00;;;3.22;;
27412;SDS011;14871;52.702;5.230;2022-10-16T04:59:17;4.65;;;3.13;;
27412;SDS011;14871;52.702;5.230;2022-10-16T05:01:43;5.28;;;2.65;;
27412;SDS011;14871;52.702;5.230;2022-10-16T05:04:10;7.10;;;2.80;;
27412;SDS011;14871;52.702;5.230;2022-10-16T05:06:36;7.70;;;3.03;;
27412;SDS011;14871;52.702;5.230;2022-10-16T05:09:03;5.53;;;3.10;;
27412;SDS011;14871;52.702;5.230;2022-10-16T05:11:29;7.40;;;2.97;;
27412;SDS011;14871;52.702;5.230;2022-10-16T05:13:55;6.22;;;3.00;;
27412;SDS011;14871;52.702;5.230;2022-10-16T05:16:20;6.68;;;3.08;;
27412;SDS011;14871;52.702;5.230;2022-10-16T05:18:46;4.53;;;3.03;;
27412;SDS011;14871;52.702;5.230;2022-10-16T05:21:12;7.30;;;2.65;;
27412;SDS011;14871;52.702;5.230;2022-10-16T05:23:37;8.70;;;2.88;;
27412;SDS011;14871;52.702;5.230;2022-10-16T05:26:03;8.65;;;2.60;;
27412;SDS011;14871;52.702;5.230;2022-10-16T05:28:29;5.60;;;2.47;;
27412;SDS011;14871;52.702;5.230;2022-10-16T05:30:55;5.68;;;2.58;;
27412;SDS011;14871;52.702;5.230;2022-10-16T05:33:22;6.68;;;2.83;;
27412;SDS011;14871;52.702;5.230;2022-10-16T05:35:49;6.22;;;3.35;;
27412;SDS011;14871;52.702;5.230;2022-10-16T05:38:15;6.10;;;3.40;;
27412;SDS011;14871;52.702;5.230;2022-10-16T05:40:41;8.38;;;2.92;;
27412;SDS011;14871;52.702;5.230;2022-10-16T05:43:07;5.03;;;2.42;;
27412;SDS011;14871;52.702;5.230;2022-10-16T05:45:32;8.02;;;3.10;;
27412;SDS011;14871;52.702;5.230;2022-10-16T05:47:59;5.30;;;2.80;;
27412;SDS011;14871;52.702;5.230;2022-10-16T05:50:25;6.53;;;2.75;;
27412;SDS011;14871;52.702;5.230;2022-10-16T05:52:51;5.22;;;2.60;;
27412;SDS011;14871;52.702;5.230;2022-10-16T05:55:16;5.90;;;2.60;;
27412;SDS011;14871;52.702;5.230;2022-10-16T05:57:42;5.75;;;2.70;;
27412;SDS011;14871;52.702;5.230;2022-10-16T06:00:08;3.83;;;2.17;;
27412;SDS011;14871;52.702;5.230;2022-10-16T06:02:34;3.80;;;2.35;;
27412;SDS011;14871;52.702;5.230;2022-10-16T06:04:59;7.10;;;3.20;;
27412;SDS011;14871;52.702;5.230;2022-10-16T06:07:25;6.88;;;2.50;;
27412;SDS011;14871;52.702;5.230;2022-10-16T06:09:51;9.13;;;2.83;;
27412;SDS011;14871;52.702;5.230;2022-10-16T06:12:17;4.45;;;2.50;;
27412;SDS011;14871;52.702;5.230;2022-10-16T06:14:44;4.70;;;2.17;;
27412;SDS011;14871;52.702;5.230;2022-10-16T06:17:11;5.95;;;2.20;;
27412;SDS011;14871;52.702;5.230;2022-10-16T06:19:38;6.80;;;2.33;;
27412;SDS011;14871;52.702;5.230;2022-10-16T06:22:04;7.63;;;2.58;;
27412;SDS011;14871;52.702;5.230;2022-10-16T06:24:29;5.35;;;2.33;;
27412;SDS011;14871;52.702;5.230;2022-10-16T06:26:55;5.70;;;2.47;;
27412;SDS011;14871;52.702;5.230;2022-10-16T06:29:20;5.80;;;2.15;;
27412;SDS011;14871;52.702;5.230;2022-10-16T06:31:46;5.57;;;2.80;;
27412;SDS011;14871;52.702;5.230;2022-10-16T06:34:11;5.28;;;2.47;;
27412;SDS011;14871;52.702;5.230;2022-10-16T06:36:37;8.20;;;3.60;;
27412;SDS011;14871;52.702;5.230;2022-10-16T06:39:04;7.95;;;2.95;;
27412;SDS011;14871;52.702;5.230;2022-10-16T06:41:31;5.95;;;2.78;;
27412;SDS011;14871;52.702;5.230;2022-10-16T06:43:57;7.97;;;2.97;;
27412;SDS011;14871;52.702;5.230;2022-10-16T06:46:23;7.97;;;2.97;;
27412;SDS011;14871;52.702;5.230;2022-10-16T06:48:50;6.07;;;2.55;;
27412;SDS011;14871;52.702;5.230;2022-10-16T06:51:16;6.75;;;2.53;;
27412;SDS011;14871;52.702;5.230;2022-10-16T06:53:47;4.90;;;2.22;;
27412;SDS011;14871;52.702;5.230;2022-10-16T06:56:19;5.03;;;2.80;;
27412;SDS011;14871;52.702;5.230;2022-10-16T06:58:46;5.15;;;2.38;;
27412;SDS011;14871;52.702;5.230;2022-10-16T07:01:13;4.90;;;2.67;;
27412;SDS011;14871;52.702;5.230;2022-10-16T07:03:40;5.60;;;2.10;;
27412;SDS011;14871;52.702;5.230;2022-10-16T07:06:07;3.30;;;1.80;;
27412;SDS011;14871;52.702;5.230;2022-10-16T07:08:35;5.40;;;2.05;;
27412;SDS011;14871;52.702;5.230;2022-10-16T07:11:02;7.97;;;2.28;;
27412;SDS011;14871;52.702;5.230;2022-10-16T07:13:29;6.15;;;1.80;;
27412;SDS011;14871;52.702;5.230;2022-10-16T07:15:57;5.07;;;2.00;;
27412;SDS011;14871;52.702;5.230;2022-10-16T07:18:28;4.13;;;1.15;;
27412;SDS011;14871;52.702;5.230;2022-10-16T07:21:02;5.05;;;2.50;;
27412;SDS011;14871;52.702;5.230;2022-10-16T07:23:38;5.05;;;2.50;;
27412;SDS011;14871;52.702;5.230;2022-10-16T07:26:05;5.93;;;2.28;;
27412;SDS011;14871;52.702;5.230;2022-10-16T07:28:31;7.15;;;1.98;;
27412;SDS011;14871;52.702;5.230;2022-10-16T07:31:01;4.15;;;1.85;;
27412;SDS011;14871;52.702;5.230;2022-10-16T07:33:31;5.27;;;2.30;;
27412;SDS011;14871;52.702;5.230;2022-10-16T07:35:58;6.07;;;2.10;;
27412;SDS011;14871;52.702;5.230;2022-10-16T07:38:23;11.20;;;2.75;;
27412;SDS011;14871;52.702;5.230;2022-10-16T07:40:55;6.72;;;2.88;;
27412;SDS011;14871;52.702;5.230;2022-10-16T07:43:25;5.40;;;2.10;;
27412;SDS011;14871;52.702;5.230;2022-10-16T07:45:51;5.78;;;2.47;;
27412;SDS011;14871;52.702;5.230;2022-10-16T07:48:17;10.02;;;2.80;;
27412;SDS011;14871;52.702;5.230;2022-10-16T07:50:43;5.28;;;2.10;;
27412;SDS011;14871;52.702;5.230;2022-10-16T07:53:09;8.15;;;2.42;;
27412;SDS011;14871;52.702;5.230;2022-10-16T07:55:36;11.35;;;2.90;;
27412;SDS011;14871;52.702;5.230;2022-10-16T07:58:02;7.82;;;2.10;;
27412;SDS011;14871;52.702;5.230;2022-10-16T08:00:27;4.63;;;1.67;;
27412;SDS011;14871;52.702;5.230;2022-10-16T08:02:53;5.78;;;2.13;;
27412;SDS011;14871;52.702;5.230;2022-10-16T08:05:18;5.30;;;2.00;;
27412;SDS011;14871;52.702;5.230;2022-10-16T08:07:48;5.45;;;2.03;;
27412;SDS011;14871;52.702;5.230;2022-10-16T08:10:15;7.82;;;1.58;;
27412;SDS011;14871;52.702;5.230;2022-10-16T08:12:42;4.88;;;2.05;;
27412;SDS011;14871;52.702;5.230;2022-10-16T08:15:08;5.88;;;2.15;;
27412;SDS011;14871;52.702;5.230;2022-10-16T08:17:34;6.93;;;1.83;;
27412;SDS011;14871;52.702;5.230;2022-10-16T08:20:00;7.88;;;1.98;;
27412;SDS011;14871;52.702;5.230;2022-10-16T08:22:26;6.63;;;2.10;;
27412;SDS011;14871;52.702;5.230;2022-10-16T08:24:52;7.18;;;1.98;;
27412;SDS011;14871;52.702;5.230;2022-10-16T08:27:17;9.25;;;1.58;;
27412;SDS011;14871;52.702;5.230;2022-10-16T08:29:43;8.23;;;1.50;;
27412;SDS011;14871;52.702;5.230;2022-10-16T08:32:09;7.20;;;1.48;;
27412;SDS011;14871;52.702;5.230;2022-10-16T08:34:34;4.88;;;1.42;;
27412;SDS011;14871;52.702;5.230;2022-10-16T08:37:00;7.20;;;1.70;;
27412;SDS011;14871;52.702;5.230;2022-10-16T08:39:25;7.22;;;1.60;;
27412;SDS011;14871;52.702;5.230;2022-10-16T08:44:39;9.07;;;2.20;;
27412;SDS011;14871;52.702;5.230;2022-10-16T08:47:30;8.98;;;1.77;;
27412;SDS011;14871;52.702;5.230;2022-10-16T08:50:09;10.27;;;2.40;;
27412;SDS011;14871;52.702;5.230;2022-10-16T08:52:43;9.98;;;1.90;;
27412;SDS011;14871;52.702;5.230;2022-10-16T08:57:57;10.73;;;1.90;;
27412;SDS011;14871;52.702;5.230;2022-10-16T09:00:23;12.10;;;2.33;;
27412;SDS011;14871;52.702;5.230;2022-10-16T09:05:51;9.20;;;2.03;;
27412;SDS011;14871;52.702;5.230;2022-10-16T09:08:59;8.93;;;1.65;;
27412;SDS011;14871;52.702;5.230;2022-10-16T09:11:31;12.32;;;2.03;;
27412;SDS011;14871;52.702;5.230;2022-10-16T09:16:59;9.10;;;2.05;;
27412;SDS011;14871;52.702;5.230;2022-10-16T09:19:33;9.95;;;1.60;;
27412;SDS011;14871;52.702;5.230;2022-10-16T09:22:10;7.32;;;1.98;;
27412;SDS011;14871;52.702;5.230;2022-10-16T09:24:39;9.48;;;1.80;;
27412;SDS011;14871;52.702;5.230;2022-10-16T09:27:07;7.72;;;1.85;;
27412;SDS011;14871;52.702;5.230;2022-10-16T09:29:35;12.07;;;2.53;;
27412;SDS011;14871;52.702;5.230;2022-10-16T09:32:07;9.70;;;2.08;;
27412;SDS011;14871;52.702;5.230;2022-10-16T09:34:37;10.10;;;2.08;;
27412;SDS011;14871;52.702;5.230;2022-10-16T09:37:12;8.05;;;1.70;;
27412;SDS011;14871;52.702;5.230;2022-10-16T09:39:50;11.45;;;2.00;;
27412;SDS011;14871;52.702;5.230;2022-10-16T09:44:51;16.50;;;2.45;;
27412;SDS011;14871;52.702;5.230;2022-10-16T09:47:19;13.25;;;2.50;;
27412;SDS011;14871;52.702;5.230;2022-10-16T09:49:54;11.25;;;2.05;;
27412;SDS011;14871;52.702;5.230;2022-10-16T09:52:24;15.57;;;2.72;;
27412;SDS011;14871;52.702;5.230;2022-10-16T09:54:54;12.77;;;2.17;;
27412;SDS011;14871;52.702;5.230;2022-10-16T09:57:21;11.32;;;2.60;;
27412;SDS011;14871;52.702;5.230;2022-10-16T09:59:52;8.65;;;2.13;;
27412;SDS011;14871;52.702;5.230;2022-10-16T10:02:19;9.50;;;2.42;;
27412;SDS011;14871;52.702;5.230;2022-10-16T10:04:58;12.00;;;1.77;;
27412;SDS011;14871;52.702;5.230;2022-10-16T10:07:28;14.93;;;1.80;;
27412;SDS011;14871;52.702;5.230;2022-10-16T10:09:59;11.65;;;1.88;;
27412;SDS011;14871;52.702;5.230;2022-10-16T10:12:30;9.20;;;3.17;;
27412;SDS011;14871;52.702;5.230;2022-10-16T10:15:06;17.52;;;2.78;;
27412;SDS011;14871;52.702;5.230;2022-10-16T10:17:45;15.90;;;3.03;;
27412;SDS011;14871;52.702;5.230;2022-10-16T10:22:55;7.55;;;1.70;;
27412;SDS011;14871;52.702;5.230;2022-10-16T10:28:39;7.40;;;1.90;;
27412;SDS011;14871;52.702;5.230;2022-10-16T10:31:21;9.05;;;2.08;;
27412;SDS011;14871;52.702;5.230;2022-10-16T10:34:17;9.27;;;2.10;;
27412;SDS011;14871;52.702;5.230;2022-10-16T10:40:15;11.25;;;2.47;;
27412;SDS011;14871;52.702;5.230;2022-10-16T10:43:16;9.77;;;1.85;;
27412;SDS011;14871;52.702;5.230;2022-10-16T10:45:58;10.13;;;1.95;;
27412;SDS011;14871;52.702;5.230;2022-10-16T10:51:10;7.63;;;1.48;;
27412;SDS011;14871;52.702;5.230;2022-10-16T10:53:49;10.93;;;2.10;;
27412;SDS011;14871;52.702;5.230;2022-10-16T10:57:02;7.50;;;1.42;;
27412;SDS011;14871;52.702;5.230;2022-10-16T11:02:34;9.00;;;1.90;;
27412;SDS011;14871;52.702;5.230;2022-10-16T11:07:58;5.65;;;1.42;;
27412;SDS011;14871;52.702;5.230;2022-10-16T11:10:29;7.72;;;2.05;;
27412;SDS011;14871;52.702;5.230;2022-10-16T11:13:13;12.70;;;2.20;;
27412;SDS011;14871;52.702;5.230;2022-10-16T11:15:50;9.88;;;2.13;;
27412;SDS011;14871;52.702;5.230;2022-10-16T11:19:10;7.68;;;1.55;;
27412;SDS011;14871;52.702;5.230;2022-10-16T11:21:20;7.20;;;1.70;;
27412;SDS011;14871;52.702;5.230;2022-10-16T11:23:52;8.52;;;1.70;;
27412;SDS011;14871;52.702;5.230;2022-10-16T11:26:25;9.02;;;1.80;;
27412;SDS011;14871;52.702;5.230;2022-10-16T11:28:54;8.65;;;1.73;;
27412;SDS011;14871;52.702;5.230;2022-10-16T11:31:25;7.28;;;1.40;;
27412;SDS011;14871;52.702;5.230;2022-10-16T11:36:57;8.27;;;1.80;;
27412;SDS011;14871;52.702;5.230;2022-10-16T11:39:30;10.20;;;2.25;;
27412;SDS011;14871;52.702;5.230;2022-10-16T11:47:09;12.75;;;2.38;;
27412;SDS011;14871;52.702;5.230;2022-10-16T11:50:18;12.35;;;2.13;;
27412;SDS011;14871;52.702;5.230;2022-10-16T11:53:09;10.77;;;1.75;;
27412;SDS011;14871;52.702;5.230;2022-10-16T11:55:43;8.02;;;2.15;;
27412;SDS011;14871;52.702;5.230;2022-10-16T11:58:21;9.32;;;2.05;;
27412;SDS011;14871;52.702;5.230;2022-10-16T12:00:53;8.07;;;1.92;;
27412;SDS011;14871;52.702;5.230;2022-10-16T12:06:11;10.10;;;2.10;;
27412;SDS011;14871;52.702;5.230;2022-10-16T12:08:44;10.38;;;1.90;;
27412;SDS011;14871;52.702;5.230;2022-10-16T12:16:38;18.30;;;3.65;;
27412;SDS011;14871;52.702;5.230;2022-10-16T12:19:18;9.85;;;2.10;;
27412;SDS011;14871;52.702;5.230;2022-10-16T12:21:44;6.85;;;1.77;;
27412;SDS011;14871;52.702;5.230;2022-10-16T12:29:59;7.85;;;1.88;;
27412;SDS011;14871;52.702;5.230;2022-10-16T12:32:31;6.88;;;1.80;;
27412;SDS011;14871;52.702;5.230;2022-10-16T12:34:58;14.70;;;1.92;;
27412;SDS011;14871;52.702;5.230;2022-10-16T12:37:29;8.60;;;1.63;;
27412;SDS011;14871;52.702;5.230;2022-10-16T12:42:57;11.20;;;1.92;;
27412;SDS011;14871;52.702;5.230;2022-10-16T12:45:24;10.05;;;2.00;;
27412;SDS011;14871;52.702;5.230;2022-10-16T12:47:56;10.80;;;1.83;;
27412;SDS011;14871;52.702;5.230;2022-10-16T12:50:27;9.55;;;1.70;;
27412;SDS011;14871;52.702;5.230;2022-10-16T12:52:56;8.35;;;2.22;;
27412;SDS011;14871;52.702;5.230;2022-10-16T12:55:22;10.32;;;2.10;;
27412;SDS011;14871;52.702;5.230;2022-10-16T13:00:41;11.65;;;2.30;;
27412;SDS011;14871;52.702;5.230;2022-10-16T13:06:16;9.35;;;1.73;;
27412;SDS011;14871;52.702;5.230;2022-10-16T13:12:06;11.20;;;1.88;;
27412;SDS011;14871;52.702;5.230;2022-10-16T13:14:54;7.18;;;2.17;;
27412;SDS011;14871;52.702;5.230;2022-10-16T13:17:49;10.13;;;3.20;;
27412;SDS011;14871;52.702;5.230;2022-10-16T13:20:24;9.38;;;2.30;;
27412;SDS011;14871;52.702;5.230;2022-10-16T13:22:59;7.13;;;1.80;;
27412;SDS011;14871;52.702;5.230;2022-10-16T13:28:38;9.27;;;1.83;;
27412;SDS011;14871;52.702;5.230;2022-10-16T13:31:04;9.50;;;1.98;;
27412;SDS011;14871;52.702;5.230;2022-10-16T13:33:32;6.88;;;1.73;;
27412;SDS011;14871;52.702;5.230;2022-10-16T13:36:00;10.80;;;1.85;;
27412;SDS011;14871;52.702;5.230;2022-10-16T13:38:27;9.15;;;1.80;;
27412;SDS011;14871;52.702;5.230;2022-10-16T13:43:32;9.55;;;1.80;;
27412;SDS011;14871;52.702;5.230;2022-10-16T13:46:11;9.65;;;2.10;;
27412;SDS011;14871;52.702;5.230;2022-10-16T13:48:38;8.63;;;2.38;;
27412;SDS011;14871;52.702;5.230;2022-10-16T13:51:14;10.82;;;2.22;;
27412;SDS011;14871;52.702;5.230;2022-10-16T13:53:41;9.13;;;1.58;;
27412;SDS011;14871;52.702;5.230;2022-10-16T13:56:12;6.75;;;1.45;;
27412;SDS011;14871;52.702;5.230;2022-10-16T13:58:43;6.85;;;1.33;;
27412;SDS011;14871;52.702;5.230;2022-10-16T14:01:16;8.73;;;1.50;;
27412;SDS011;14871;52.702;5.230;2022-10-16T14:03:45;9.20;;;1.80;;
27412;SDS011;14871;52.702;5.230;2022-10-16T14:06:13;5.55;;;1.58;;
27412;SDS011;14871;52.702;5.230;2022-10-16T14:08:53;11.27;;;1.60;;
27412;SDS011;14871;52.702;5.230;2022-10-16T14:11:24;7.63;;;1.55;;
27412;SDS011;14871;52.702;5.230;2022-10-16T14:13:50;8.27;;;1.67;;
27412;SDS011;14871;52.702;5.230;2022-10-16T14:16:23;12.07;;;1.92;;
27412;SDS011;14871;52.702;5.230;2022-10-16T14:18:55;8.88;;;2.00;;
27412;SDS011;14871;52.702;5.230;2022-10-16T14:21:25;13.55;;;3.47;;
27412;SDS011;14871;52.702;5.230;2022-10-16T14:23:52;9.88;;;2.70;;
27412;SDS011;14871;52.702;5.230;2022-10-16T14:26:19;9.90;;;1.83;;
27412;SDS011;14871;52.702;5.230;2022-10-16T14:28:48;6.88;;;1.45;;
27412;SDS011;14871;52.702;5.230;2022-10-16T14:31:26;9.45;;;2.00;;
27412;SDS011;14871;52.702;5.230;2022-10-16T14:33:58;9.80;;;1.80;;
27412;SDS011;14871;52.702;5.230;2022-10-16T14:36:25;9.32;;;1.63;;
27412;SDS011;14871;52.702;5.230;2022-10-16T14:39:03;8.13;;;2.60;;
27412;SDS011;14871;52.702;5.230;2022-10-16T14:41:30;8.82;;;2.63;;
27412;SDS011;14871;52.702;5.230;2022-10-16T14:44:04;11.73;;;2.92;;
27412;SDS011;14871;52.702;5.230;2022-10-16T14:46:32;13.07;;;3.03;;
27412;SDS011;14871;52.702;5.230;2022-10-16T14:49:02;15.10;;;2.28;;
27412;SDS011;14871;52.702;5.230;2022-10-16T14:51:38;11.50;;;2.10;;
27412;SDS011;14871;52.702;5.230;2022-10-16T14:54:07;10.75;;;2.20;;
27412;SDS011;14871;52.702;5.230;2022-10-16T14:56:50;11.50;;;2.35;;
27412;SDS011;14871;52.702;5.230;2022-10-16T14:59:22;10.07;;;2.08;;
27412;SDS011;14871;52.702;5.230;2022-10-16T15:02:46;11.00;;;2.28;;
27412;SDS011;14871;52.702;5.230;2022-10-16T15:04:54;15.63;;;2.00;;
27412;SDS011;14871;52.702;5.230;2022-10-16T15:07:20;7.43;;;1.42;;
27412;SDS011;14871;52.702;5.230;2022-10-16T15:09:46;9.07;;;1.75;;
27412;SDS011;14871;52.702;5.230;2022-10-16T15:12:12;12.13;;;2.20;;
27412;SDS011;14871;52.702;5.230;2022-10-16T15:14:37;8.13;;;2.40;;
27412;SDS011;14871;52.702;5.230;2022-10-16T15:17:03;10.00;;;1.83;;
27412;SDS011;14871;52.702;5.230;2022-10-16T15:19:29;9.20;;;1.80;;
27412;SDS011;14871;52.702;5.230;2022-10-16T15:21:55;13.50;;;2.03;;
27412;SDS011;14871;52.702;5.230;2022-10-16T15:24:21;9.25;;;1.75;;
27412;SDS011;14871;52.702;5.230;2022-10-16T15:26:46;10.57;;;1.90;;
27412;SDS011;14871;52.702;5.230;2022-10-16T15:29:12;10.40;;;1.80;;
27412;SDS011;14871;52.702;5.230;2022-10-16T15:31:38;9.63;;;1.75;;
27412;SDS011;14871;52.702;5.230;2022-10-16T15:34:07;9.13;;;2.00;;
27412;SDS011;14871;52.702;5.230;2022-10-16T15:36:36;16.85;;;3.25;;
27412;SDS011;14871;52.702;5.230;2022-10-16T15:39:13;10.35;;;2.00;;
27412;SDS011;14871;52.702;5.230;2022-10-16T15:41:41;9.50;;;2.83;;
27412;SDS011;14871;52.702;5.230;2022-10-16T15:44:07;12.75;;;2.85;;
27412;SDS011;14871;52.702;5.230;2022-10-16T15:46:33;11.63;;;2.28;;
27412;SDS011;14871;52.702;5.230;2022-10-16T15:48:59;10.50;;;2.15;;
27412;SDS011;14871;52.702;5.230;2022-10-16T15:51:26;11.60;;;3.28;;
27412;SDS011;14871;52.702;5.230;2022-10-16T15:53:57;17.13;;;2.75;;
27412;SDS011;14871;52.702;5.230;2022-10-16T15:56:26;8.20;;;2.30;;
27412;SDS011;14871;52.702;5.230;2022-10-16T15:58:53;9.73;;;2.00;;
27412;SDS011;14871;52.702;5.230;2022-10-16T16:01:19;7.68;;;2.00;;
27412;SDS011;14871;52.702;5.230;2022-10-16T16:03:46;11.15;;;1.95;;
27412;SDS011;14871;52.702;5.230;2022-10-16T16:06:12;12.85;;;2.15;;
27412;SDS011;14871;52.702;5.230;2022-10-16T16:08:39;9.13;;;2.08;;
27412;SDS011;14871;52.702;5.230;2022-10-16T16:11:06;13.07;;;2.15;;
27412;SDS011;14871;52.702;5.230;2022-10-16T16:13:33;10.90;;;1.80;;
27412;SDS011;14871;52.702;5.230;2022-10-16T16:15:59;11.10;;;2.05;;
27412;SDS011;14871;52.702;5.230;2022-10-16T16:18:25;10.00;;;2.33;;
27412;SDS011;14871;52.702;5.230;2022-10-16T16:20:51;12.45;;;2.20;;
27412;SDS011;14871;52.702;5.230;2022-10-16T16:23:17;8.50;;;3.72;;
27412;SDS011;14871;52.702;5.230;2022-10-16T16:25:44;11.13;;;4.10;;